sensor_id;sensor_type;location;lat;lon;timestamp;temperature;humidity
2621;DHT22;1320;48.128;11.592;2024-02-21T00:01:44;7.60;99.90
2621;DHT22;1320;48.128;11.592;2024-02-21T00:04:10;7.60;99.90
2621;DHT22;1320;48.128;11.592;2024-02-21T00:06:36;7.50;99.90
2621;DHT22;1320;48.128;11.592;2024-02-21T00:09:01;7.60;99.90
2621;DHT22;1320;48.128;11.592;2024-02-21T00:11:28;7.60;99.90
2621;DHT22;1320;48.128;11.592;2024-02-21T00:13:53;7.60;99.90
2621;DHT22;1320;48.128;11.592;2024-02-21T00:16:19;7.60;99.90
2621;DHT22;1320;48.128;11.592;2024-02-21T00:18:45;7.60;99.90
2621;DHT22;1320;48.128;11.592;2024-02-21T00:21:11;7.60;99.90
2621;DHT22;1320;48.128;11.592;2024-02-21T00:23:44;7.50;99.90
2621;DHT22;1320;48.128;11.592;2024-02-21T00:26:14;7.50;99.90
2621;DHT22;1320;48.128;11.592;2024-02-21T00:28:40;7.40;99.90
2621;DHT22;1320;48.128;11.592;2024-02-21T00:31:05;7.40;99.90
2621;DHT22;1320;48.128;11.592;2024-02-21T00:33:31;7.50;99.90
2621;DHT22;1320;48.128;11.592;2024-02-21T00:35:56;7.50;99.90
2621;DHT22;1320;48.128;11.592;2024-02-21T00:38:22;7.50;99.90
2621;DHT22;1320;48.128;11.592;2024-02-21T00:40:48;7.50;99.90
2621;DHT22;1320;48.128;11.592;2024-02-21T00:43:13;7.60;99.90
2621;DHT22;1320;48.128;11.592;2024-02-21T00:45:39;7.50;99.90
2621;DHT22;1320;48.128;11.592;2024-02-21T00:48:05;7.50;99.90
2621;DHT22;1320;48.128;11.592;2024-02-21T00:50:31;7.50;99.90
2621;DHT22;1320;48.128;11.592;2024-02-21T00:52:56;7.50;99.90
2621;DHT22;1320;48.128;11.592;2024-02-21T00:55:22;7.50;99.90
2621;DHT22;1320;48.128;11.592;2024-02-21T00:57:47;7.40;99.90
2621;DHT22;1320;48.128;11.592;2024-02-21T01:00:13;7.40;99.90
2621;DHT22;1320;48.128;11.592;2024-02-21T01:02:39;7.50;99.90
2621;DHT22;1320;48.128;11.592;2024-02-21T01:05:05;7.50;99.90
2621;DHT22;1320;48.128;11.592;2024-02-21T01:07:31;7.50;99.90
2621;DHT22;1320;48.128;11.592;2024-02-21T01:09:57;7.50;99.90
2621;DHT22;1320;48.128;11.592;2024-02-21T01:12:22;7.40;99.90
2621;DHT22;1320;48.128;11.592;2024-02-21T01:14:48;7.40;99.90
2621;DHT22;1320;48.128;11.592;2024-02-21T01:17:14;7.30;99.90
2621;DHT22;1320;48.128;11.592;2024-02-21T01:19:40;7.20;99.90
2621;DHT22;1320;48.128;11.592;2024-02-21T01:22:06;7.20;99.90
2621;DHT22;1320;48.128;11.592;2024-02-21T01:24:32;7.20;99.90
2621;DHT22;1320;48.128;11.592;2024-02-21T01:26:57;7.20;99.90
2621;DHT22;1320;48.128;11.592;2024-02-21T01:29:23;7.20;99.90
2621;DHT22;1320;48.128;11.592;2024-02-21T01:31:49;7.20;99.90
2621;DHT22;1320;48.128;11.592;2024-02-21T08:03:16;8.00;99.90
2621;DHT22;1320;48.128;11.592;2024-02-21T08:05:43;8.30;99.90
2621;DHT22;1320;48.128;11.592;2024-02-21T08:08:09;8.40;99.90
2621;DHT22;1320;48.128;11.592;2024-02-21T08:10:34;8.70;99.90
2621;DHT22;1320;48.128;11.592;2024-02-21T08:15:26;9.00;99.90
2621;DHT22;1320;48.128;11.592;2024-02-21T08:17:55;9.10;99.90
2621;DHT22;1320;48.128;11.592;2024-02-21T08:22:51;9.40;99.90
2621;DHT22;1320;48.128;11.592;2024-02-21T12:24:23;18.50;64.60
2621;DHT22;1320;48.128;11.592;2024-02-21T12:26:52;18.50;65.10
2621;DHT22;1320;48.128;11.592;2024-02-21T12:29:21;18.50;63.50
2621;DHT22;1320;48.128;11.592;2024-02-21T12:31:48;18.60;63.30
2621;DHT22;1320;48.128;11.592;2024-02-21T12:34:15;18.60;63.30
2621;DHT22;1320;48.128;11.592;2024-02-21T12:36:45;18.80;62.50
2621;DHT22;1320;48.128;11.592;2024-02-21T12:39:14;18.90;63.60
2621;DHT22;1320;48.128;11.592;2024-02-21T12:46:35;19.00;58.50
2621;DHT22;1320;48.128;11.592;2024-02-21T12:49:02;19.10;58.70
2621;DHT22;1320;48.128;11.592;2024-02-21T12:51:28;19.10;58.00
2621;DHT22;1320;48.128;11.592;2024-02-21T12:53:55;19.20;58.60
2621;DHT22;1320;48.128;11.592;2024-02-21T12:56:21;19.10;59.40
2621;DHT22;1320;48.128;11.592;2024-02-21T12:58:46;19.10;59.10
2621;DHT22;1320;48.128;11.592;2024-02-21T13:01:12;19.20;58.40
2621;DHT22;1320;48.128;11.592;2024-02-21T13:03:38;19.20;57.90
2621;DHT22;1320;48.128;11.592;2024-02-21T13:06:04;19.20;57.50
2621;DHT22;1320;48.128;11.592;2024-02-21T13:08:30;19.20;57.00
2621;DHT22;1320;48.128;11.592;2024-02-21T13:10:56;19.10;57.30
2621;DHT22;1320;48.128;11.592;2024-02-21T13:13:22;19.20;57.60
2621;DHT22;1320;48.128;11.592;2024-02-21T13:15:47;19.20;55.80
2621;DHT22;1320;48.128;11.592;2024-02-21T13:18:13;19.30;56.40
2621;DHT22;1320;48.128;11.592;2024-02-21T13:20:39;19.30;56.50
2621;DHT22;1320;48.128;11.592;2024-02-21T13:23:04;19.30;57.20
2621;DHT22;1320;48.128;11.592;2024-02-21T13:25:30;19.40;57.20
2621;DHT22;1320;48.128;11.592;2024-02-21T13:27:56;19.40;56.80
2621;DHT22;1320;48.128;11.592;2024-02-21T13:30:22;19.40;56.70
2621;DHT22;1320;48.128;11.592;2024-02-21T13:35:14;19.50;56.80
2621;DHT22;1320;48.128;11.592;2024-02-21T13:37:41;19.50;57.60
2621;DHT22;1320;48.128;11.592;2024-02-21T13:40:07;19.50;58.00
2621;DHT22;1320;48.128;11.592;2024-02-21T13:42:37;19.40;56.50
2621;DHT22;1320;48.128;11.592;2024-02-21T13:45:03;19.40;56.40
2621;DHT22;1320;48.128;11.592;2024-02-21T13:47:30;19.30;56.70
2621;DHT22;1320;48.128;11.592;2024-02-21T13:49:56;19.30;56.60
2621;DHT22;1320;48.128;11.592;2024-02-21T13:52:22;19.40;56.20
2621;DHT22;1320;48.128;11.592;2024-02-21T13:54:48;19.50;55.50
2621;DHT22;1320;48.128;11.592;2024-02-21T13:57:14;19.50;54.30
2621;DHT22;1320;48.128;11.592;2024-02-21T13:59:42;19.30;54.40
2621;DHT22;1320;48.128;11.592;2024-02-21T14:02:08;19.20;55.20
2621;DHT22;1320;48.128;11.592;2024-02-21T14:04:34;19.10;55.70
2621;DHT22;1320;48.128;11.592;2024-02-21T14:07:00;19.10;55.50
2621;DHT22;1320;48.128;11.592;2024-02-21T14:09:32;19.00;55.80
2621;DHT22;1320;48.128;11.592;2024-02-21T14:11:59;19.00;56.30
2621;DHT22;1320;48.128;11.592;2024-02-21T14:14:25;19.00;56.30
2621;DHT22;1320;48.128;11.592;2024-02-21T14:16:50;19.10;56.60
2621;DHT22;1320;48.128;11.592;2024-02-21T14:19:16;19.10;56.10
2621;DHT22;1320;48.128;11.592;2024-02-21T14:21:43;19.10;56.70
2621;DHT22;1320;48.128;11.592;2024-02-21T14:24:10;19.10;56.10
2621;DHT22;1320;48.128;11.592;2024-02-21T14:26:37;19.10;56.10
2621;DHT22;1320;48.128;11.592;2024-02-21T14:29:03;19.10;56.30
2621;DHT22;1320;48.128;11.592;2024-02-21T14:31:31;19.20;56.30
2621;DHT22;1320;48.128;11.592;2024-02-21T14:33:57;19.20;56.10
2621;DHT22;1320;48.128;11.592;2024-02-21T14:36:23;19.10;56.10
2621;DHT22;1320;48.128;11.592;2024-02-21T14:38:49;19.20;56.30
2621;DHT22;1320;48.128;11.592;2024-02-21T14:41:17;19.20;56.40
2621;DHT22;1320;48.128;11.592;2024-02-21T14:43:43;19.30;56.30
2621;DHT22;1320;48.128;11.592;2024-02-21T14:46:09;19.30;56.80
2621;DHT22;1320;48.128;11.592;2024-02-21T14:48:34;19.40;56.60
2621;DHT22;1320;48.128;11.592;2024-02-21T14:51:02;19.40;56.40
2621;DHT22;1320;48.128;11.592;2024-02-21T14:53:27;19.40;56.20
2621;DHT22;1320;48.128;11.592;2024-02-21T14:55:54;19.40;56.70
2621;DHT22;1320;48.128;11.592;2024-02-21T14:58:20;19.40;56.60
2621;DHT22;1320;48.128;11.592;2024-02-21T15:00:46;19.50;55.90
2621;DHT22;1320;48.128;11.592;2024-02-21T15:03:16;19.40;55.70
2621;DHT22;1320;48.128;11.592;2024-02-21T15:05:45;19.30;56.60
2621;DHT22;1320;48.128;11.592;2024-02-21T15:08:11;19.30;55.90
2621;DHT22;1320;48.128;11.592;2024-02-21T15:10:38;19.30;56.30
2621;DHT22;1320;48.128;11.592;2024-02-21T15:13:04;19.40;56.60
2621;DHT22;1320;48.128;11.592;2024-02-21T15:15:30;19.40;56.10
2621;DHT22;1320;48.128;11.592;2024-02-21T15:17:56;19.30;56.30
2621;DHT22;1320;48.128;11.592;2024-02-21T15:20:27;19.20;56.60
2621;DHT22;1320;48.128;11.592;2024-02-21T15:22:53;19.00;56.50
2621;DHT22;1320;48.128;11.592;2024-02-21T15:25:19;18.80;56.70
2621;DHT22;1320;48.128;11.592;2024-02-21T15:27:45;18.60;56.50
2621;DHT22;1320;48.128;11.592;2024-02-21T15:30:12;18.40;56.60
2621;DHT22;1320;48.128;11.592;2024-02-21T15:32:39;18.20;56.90
2621;DHT22;1320;48.128;11.592;2024-02-21T15:35:05;18.10;57.50
2621;DHT22;1320;48.128;11.592;2024-02-21T15:37:32;17.90;57.50
2621;DHT22;1320;48.128;11.592;2024-02-21T15:39:58;17.80;57.70
2621;DHT22;1320;48.128;11.592;2024-02-21T15:42:24;17.70;58.10
2621;DHT22;1320;48.128;11.592;2024-02-21T15:44:49;17.50;58.40
2621;DHT22;1320;48.128;11.592;2024-02-21T15:47:15;17.40;58.90
2621;DHT22;1320;48.128;11.592;2024-02-21T15:49:44;17.30;59.60
2621;DHT22;1320;48.128;11.592;2024-02-21T15:52:09;17.30;59.60
2621;DHT22;1320;48.128;11.592;2024-02-21T15:54:36;17.20;60.20
2621;DHT22;1320;48.128;11.592;2024-02-21T15:57:02;17.10;59.90
2621;DHT22;1320;48.128;11.592;2024-02-21T15:59:32;17.00;59.70
2621;DHT22;1320;48.128;11.592;2024-02-21T16:01:57;16.90;60.00
2621;DHT22;1320;48.128;11.592;2024-02-21T16:04:28;16.80;60.40
2621;DHT22;1320;48.128;11.592;2024-02-21T16:06:55;16.70;61.20
2621;DHT22;1320;48.128;11.592;2024-02-21T16:09:21;16.70;60.80
2621;DHT22;1320;48.128;11.592;2024-02-21T16:11:47;16.60;60.90
2621;DHT22;1320;48.128;11.592;2024-02-21T16:14:13;16.50;61.80
2621;DHT22;1320;48.128;11.592;2024-02-21T16:16:39;16.50;62.00
2621;DHT22;1320;48.128;11.592;2024-02-21T16:19:09;16.50;62.20
2621;DHT22;1320;48.128;11.592;2024-02-21T16:21:35;16.40;62.10
2621;DHT22;1320;48.128;11.592;2024-02-21T16:24:01;16.30;62.90
2621;DHT22;1320;48.128;11.592;2024-02-21T16:26:27;16.30;62.90
2621;DHT22;1320;48.128;11.592;2024-02-21T16:28:53;16.20;63.00
2621;DHT22;1320;48.128;11.592;2024-02-21T16:31:18;16.10;63.00
2621;DHT22;1320;48.128;11.592;2024-02-21T16:33:44;16.10;63.40
2621;DHT22;1320;48.128;11.592;2024-02-21T16:36:23;16.00;63.80
2621;DHT22;1320;48.128;11.592;2024-02-21T16:38:52;16.00;63.70
2621;DHT22;1320;48.128;11.592;2024-02-21T16:41:18;15.90;64.10
2621;DHT22;1320;48.128;11.592;2024-02-21T16:43:46;15.90;64.60
2621;DHT22;1320;48.128;11.592;2024-02-21T16:46:12;15.80;64.90
2621;DHT22;1320;48.128;11.592;2024-02-21T16:48:38;15.80;65.50
2621;DHT22;1320;48.128;11.592;2024-02-21T16:51:04;15.80;65.50
2621;DHT22;1320;48.128;11.592;2024-02-21T16:53:31;15.80;66.10
2621;DHT22;1320;48.128;11.592;2024-02-21T16:55:57;15.70;66.60
2621;DHT22;1320;48.128;11.592;2024-02-21T16:58:24;15.70;66.90
2621;DHT22;1320;48.128;11.592;2024-02-21T17:00:50;15.70;67.10
2621;DHT22;1320;48.128;11.592;2024-02-21T17:03:16;15.60;67.50
2621;DHT22;1320;48.128;11.592;2024-02-21T17:05:48;15.60;67.90
2621;DHT22;1320;48.128;11.592;2024-02-21T17:08:15;15.50;68.20
2621;DHT22;1320;48.128;11.592;2024-02-21T17:10:40;15.50;68.60
2621;DHT22;1320;48.128;11.592;2024-02-21T17:13:06;15.40;68.80
2621;DHT22;1320;48.128;11.592;2024-02-21T17:15:32;15.40;69.20
2621;DHT22;1320;48.128;11.592;2024-02-21T17:17:57;15.30;69.40
2621;DHT22;1320;48.128;11.592;2024-02-21T17:20:26;15.30;69.80
2621;DHT22;1320;48.128;11.592;2024-02-21T17:22:51;15.20;69.90
2621;DHT22;1320;48.128;11.592;2024-02-21T17:25:17;15.20;70.20
2621;DHT22;1320;48.128;11.592;2024-02-21T17:27:43;15.10;71.40
2621;DHT22;1320;48.128;11.592;2024-02-21T17:30:08;15.00;72.00
2621;DHT22;1320;48.128;11.592;2024-02-21T17:32:35;14.90;72.50
2621;DHT22;1320;48.128;11.592;2024-02-21T17:35:01;14.80;73.70
2621;DHT22;1320;48.128;11.592;2024-02-21T17:37:32;14.70;75.10
2621;DHT22;1320;48.128;11.592;2024-02-21T17:40:03;14.60;86.20
2621;DHT22;1320;48.128;11.592;2024-02-21T17:42:35;14.50;88.20
2621;DHT22;1320;48.128;11.592;2024-02-21T17:45:01;14.40;83.00
2621;DHT22;1320;48.128;11.592;2024-02-21T17:47:28;14.30;84.20
2621;DHT22;1320;48.128;11.592;2024-02-21T17:49:54;14.20;83.30
2621;DHT22;1320;48.128;11.592;2024-02-21T17:52:19;14.10;82.10
2621;DHT22;1320;48.128;11.592;2024-02-21T17:54:46;14.00;83.00
2621;DHT22;1320;48.128;11.592;2024-02-21T17:57:13;13.90;88.80
2621;DHT22;1320;48.128;11.592;2024-02-21T17:59:42;13.80;89.30
2621;DHT22;1320;48.128;11.592;2024-02-21T18:02:08;13.70;92.10
2621;DHT22;1320;48.128;11.592;2024-02-21T18:04:35;13.60;96.90
2621;DHT22;1320;48.128;11.592;2024-02-21T18:07:01;13.50;91.40
2621;DHT22;1320;48.128;11.592;2024-02-21T18:09:28;13.40;92.10
2621;DHT22;1320;48.128;11.592;2024-02-21T18:11:54;13.30;93.70
2621;DHT22;1320;48.128;11.592;2024-02-21T18:14:20;13.30;92.70
2621;DHT22;1320;48.128;11.592;2024-02-21T18:16:45;13.20;92.70
2621;DHT22;1320;48.128;11.592;2024-02-21T18:19:11;13.20;95.60
2621;DHT22;1320;48.128;11.592;2024-02-21T18:21:37;13.10;96.30
2621;DHT22;1320;48.128;11.592;2024-02-21T18:24:02;13.10;99.90
2621;DHT22;1320;48.128;11.592;2024-02-21T18:26:29;13.00;99.90
2621;DHT22;1320;48.128;11.592;2024-02-21T18:31:22;12.90;97.70
2621;DHT22;1320;48.128;11.592;2024-02-21T18:33:48;12.80;97.10
2621;DHT22;1320;48.128;11.592;2024-02-21T18:36:14;12.80;99.90
2621;DHT22;1320;48.128;11.592;2024-02-21T18:38:40;12.70;94.70
2621;DHT22;1320;48.128;11.592;2024-02-21T18:41:05;12.60;92.40
2621;DHT22;1320;48.128;11.592;2024-02-21T18:43:34;12.60;92.30
2621;DHT22;1320;48.128;11.592;2024-02-21T18:46:00;12.60;92.20
2621;DHT22;1320;48.128;11.592;2024-02-21T18:48:26;12.50;92.00
2621;DHT22;1320;48.128;11.592;2024-02-21T18:50:51;12.40;92.20
2621;DHT22;1320;48.128;11.592;2024-02-21T18:53:17;12.30;92.40
2621;DHT22;1320;48.128;11.592;2024-02-21T18:55:43;12.30;92.60
2621;DHT22;1320;48.128;11.592;2024-02-21T18:58:08;12.30;92.90
2621;DHT22;1320;48.128;11.592;2024-02-21T19:00:34;12.20;93.00
2621;DHT22;1320;48.128;11.592;2024-02-21T19:03:00;12.20;93.10
2621;DHT22;1320;48.128;11.592;2024-02-21T19:05:25;12.10;93.40
2621;DHT22;1320;48.128;11.592;2024-02-21T19:07:51;12.10;93.50
2621;DHT22;1320;48.128;11.592;2024-02-21T19:10:17;12.10;93.70
2621;DHT22;1320;48.128;11.592;2024-02-21T19:12:42;12.10;94.00
2621;DHT22;1320;48.128;11.592;2024-02-21T19:15:09;12.00;94.00
2621;DHT22;1320;48.128;11.592;2024-02-21T19:17:34;12.00;94.20
2621;DHT22;1320;48.128;11.592;2024-02-21T19:20:01;12.00;94.30
2621;DHT22;1320;48.128;11.592;2024-02-21T19:22:27;12.00;94.50
2621;DHT22;1320;48.128;11.592;2024-02-21T19:24:56;11.90;94.70
2621;DHT22;1320;48.128;11.592;2024-02-21T19:27:25;11.90;95.00
2621;DHT22;1320;48.128;11.592;2024-02-21T19:29:50;11.80;95.10
2621;DHT22;1320;48.128;11.592;2024-02-21T19:32:16;11.80;95.30
2621;DHT22;1320;48.128;11.592;2024-02-21T19:34:45;11.80;95.40
2621;DHT22;1320;48.128;11.592;2024-02-21T19:37:10;11.80;95.60
2621;DHT22;1320;48.128;11.592;2024-02-21T19:39:36;11.70;95.60
2621;DHT22;1320;48.128;11.592;2024-02-21T19:42:03;11.70;95.80
2621;DHT22;1320;48.128;11.592;2024-02-21T19:44:30;11.70;95.90
2621;DHT22;1320;48.128;11.592;2024-02-21T19:46:56;11.70;96.00
2621;DHT22;1320;48.128;11.592;2024-02-21T19:49:22;11.60;96.10
2621;DHT22;1320;48.128;11.592;2024-02-21T19:51:47;11.60;96.70
2621;DHT22;1320;48.128;11.592;2024-02-21T19:54:13;11.60;98.40
2621;DHT22;1320;48.128;11.592;2024-02-21T19:56:39;11.60;96.60
2621;DHT22;1320;48.128;11.592;2024-02-21T19:59:05;11.50;96.30
2621;DHT22;1320;48.128;11.592;2024-02-21T20:01:32;11.40;96.40
2621;DHT22;1320;48.128;11.592;2024-02-21T20:03:57;11.40;96.40
2621;DHT22;1320;48.128;11.592;2024-02-21T20:06:23;11.40;96.40
2621;DHT22;1320;48.128;11.592;2024-02-21T20:08:49;11.30;96.40
2621;DHT22;1320;48.128;11.592;2024-02-21T20:11:15;11.30;96.40
2621;DHT22;1320;48.128;11.592;2024-02-21T20:13:40;11.30;96.30
2621;DHT22;1320;48.128;11.592;2024-02-21T20:16:07;11.30;96.20
2621;DHT22;1320;48.128;11.592;2024-02-21T20:18:33;11.30;96.10
2621;DHT22;1320;48.128;11.592;2024-02-21T20:20:59;11.30;96.00
2621;DHT22;1320;48.128;11.592;2024-02-21T20:23:24;11.30;95.90
2621;DHT22;1320;48.128;11.592;2024-02-21T20:25:50;11.30;95.80
2621;DHT22;1320;48.128;11.592;2024-02-21T20:28:17;11.30;95.80
2621;DHT22;1320;48.128;11.592;2024-02-21T20:30:43;11.30;95.60
2621;DHT22;1320;48.128;11.592;2024-02-21T20:33:10;11.40;95.60
2621;DHT22;1320;48.128;11.592;2024-02-21T20:35:36;11.40;95.60
2621;DHT22;1320;48.128;11.592;2024-02-21T20:38:02;11.40;95.60
2621;DHT22;1320;48.128;11.592;2024-02-21T20:40:31;11.40;95.50
2621;DHT22;1320;48.128;11.592;2024-02-21T20:42:57;11.40;95.50
2621;DHT22;1320;48.128;11.592;2024-02-21T20:45:22;11.40;95.50
2621;DHT22;1320;48.128;11.592;2024-02-21T20:47:48;11.40;95.50
2621;DHT22;1320;48.128;11.592;2024-02-21T20:50:17;11.40;95.50
2621;DHT22;1320;48.128;11.592;2024-02-21T20:52:45;11.40;95.50
2621;DHT22;1320;48.128;11.592;2024-02-21T20:55:10;11.40;95.50
2621;DHT22;1320;48.128;11.592;2024-02-21T20:57:36;11.50;95.60
2621;DHT22;1320;48.128;11.592;2024-02-21T21:00:04;11.50;95.60
2621;DHT22;1320;48.128;11.592;2024-02-21T21:02:31;11.60;95.70
2621;DHT22;1320;48.128;11.592;2024-02-21T21:04:57;11.60;95.80
2621;DHT22;1320;48.128;11.592;2024-02-21T21:07:23;11.60;95.90
2621;DHT22;1320;48.128;11.592;2024-02-21T21:09:48;11.60;96.10
2621;DHT22;1320;48.128;11.592;2024-02-21T21:12:14;11.60;96.30
2621;DHT22;1320;48.128;11.592;2024-02-21T21:14:40;11.60;96.40
2621;DHT22;1320;48.128;11.592;2024-02-21T21:17:06;11.60;96.90
2621;DHT22;1320;48.128;11.592;2024-02-21T21:19:32;11.60;96.90
2621;DHT22;1320;48.128;11.592;2024-02-21T21:21:57;11.60;97.50
2621;DHT22;1320;48.128;11.592;2024-02-21T21:24:25;11.60;97.70
2621;DHT22;1320;48.128;11.592;2024-02-21T21:26:54;11.60;98.30
2621;DHT22;1320;48.128;11.592;2024-02-21T21:29:20;11.60;98.40
2621;DHT22;1320;48.128;11.592;2024-02-21T21:31:46;11.60;96.70
2621;DHT22;1320;48.128;11.592;2024-02-21T21:34:12;11.60;96.60
2621;DHT22;1320;48.128;11.592;2024-02-21T21:36:38;11.60;96.60
2621;DHT22;1320;48.128;11.592;2024-02-21T21:39:04;11.50;96.60
2621;DHT22;1320;48.128;11.592;2024-02-21T21:41:31;11.50;96.70
2621;DHT22;1320;48.128;11.592;2024-02-21T21:43:56;11.50;96.90
2621;DHT22;1320;48.128;11.592;2024-02-21T21:46:22;11.50;97.00
2621;DHT22;1320;48.128;11.592;2024-02-21T21:48:48;11.50;97.00
2621;DHT22;1320;48.128;11.592;2024-02-21T21:51:14;11.50;97.00
2621;DHT22;1320;48.128;11.592;2024-02-21T21:53:40;11.50;97.00
2621;DHT22;1320;48.128;11.592;2024-02-21T21:56:08;11.50;97.10
2621;DHT22;1320;48.128;11.592;2024-02-21T21:58:34;11.50;97.30
2621;DHT22;1320;48.128;11.592;2024-02-21T22:01:00;11.50;97.50
2621;DHT22;1320;48.128;11.592;2024-02-21T22:03:26;11.40;97.50
2621;DHT22;1320;48.128;11.592;2024-02-21T22:05:53;11.40;97.60
2621;DHT22;1320;48.128;11.592;2024-02-21T22:08:18;11.40;97.70
2621;DHT22;1320;48.128;11.592;2024-02-21T22:10:45;11.40;97.60
2621;DHT22;1320;48.128;11.592;2024-02-21T22:13:11;11.40;97.70
2621;DHT22;1320;48.128;11.592;2024-02-21T22:15:37;11.40;97.60
2621;DHT22;1320;48.128;11.592;2024-02-21T22:18:04;11.40;97.60
2621;DHT22;1320;48.128;11.592;2024-02-21T22:20:29;11.40;97.60
2621;DHT22;1320;48.128;11.592;2024-02-21T22:22:59;11.40;97.60
2621;DHT22;1320;48.128;11.592;2024-02-21T22:25:24;11.40;97.60
2621;DHT22;1320;48.128;11.592;2024-02-21T22:27:50;11.50;97.50
2621;DHT22;1320;48.128;11.592;2024-02-21T22:30:16;11.50;97.50
2621;DHT22;1320;48.128;11.592;2024-02-21T22:32:43;11.60;97.40
2621;DHT22;1320;48.128;11.592;2024-02-21T22:35:09;11.60;97.40
2621;DHT22;1320;48.128;11.592;2024-02-21T22:37:34;11.70;96.90
2621;DHT22;1320;48.128;11.592;2024-02-21T22:40:00;11.80;97.00
2621;DHT22;1320;48.128;11.592;2024-02-21T22:42:26;11.80;97.00
2621;DHT22;1320;48.128;11.592;2024-02-21T22:44:52;11.80;97.00
2621;DHT22;1320;48.128;11.592;2024-02-21T22:47:18;11.90;96.50
2621;DHT22;1320;48.128;11.592;2024-02-21T22:49:43;11.90;95.70
2621;DHT22;1320;48.128;11.592;2024-02-21T22:52:09;12.00;95.50
2621;DHT22;1320;48.128;11.592;2024-02-21T22:54:35;12.00;95.50
2621;DHT22;1320;48.128;11.592;2024-02-21T22:57:01;12.10;95.70
2621;DHT22;1320;48.128;11.592;2024-02-21T22:59:29;12.20;95.80
2621;DHT22;1320;48.128;11.592;2024-02-21T23:01:56;12.30;95.30
2621;DHT22;1320;48.128;11.592;2024-02-21T23:04:22;12.30;95.30
2621;DHT22;1320;48.128;11.592;2024-02-21T23:06:48;12.40;95.40
2621;DHT22;1320;48.128;11.592;2024-02-21T23:09:14;12.40;95.00
2621;DHT22;1320;48.128;11.592;2024-02-21T23:11:43;12.50;94.30
2621;DHT22;1320;48.128;11.592;2024-02-21T23:14:09;12.50;94.40
2621;DHT22;1320;48.128;11.592;2024-02-21T23:16:34;12.60;94.10
2621;DHT22;1320;48.128;11.592;2024-02-21T23:19:00;12.70;93.10
2621;DHT22;1320;48.128;11.592;2024-02-21T23:21:26;12.80;93.20
2621;DHT22;1320;48.128;11.592;2024-02-21T23:23:51;12.80;93.10
2621;DHT22;1320;48.128;11.592;2024-02-21T23:26:28;12.90;92.60
2621;DHT22;1320;48.128;11.592;2024-02-21T23:28:56;12.90;92.80
2621;DHT22;1320;48.128;11.592;2024-02-21T23:31:22;13.00;92.70
2621;DHT22;1320;48.128;11.592;2024-02-21T23:33:48;13.10;92.30
2621;DHT22;1320;48.128;11.592;2024-02-21T23:36:14;13.10;92.40
2621;DHT22;1320;48.128;11.592;2024-02-21T23:38:40;13.20;91.80
2621;DHT22;1320;48.128;11.592;2024-02-21T23:41:05;13.20;91.90
2621;DHT22;1320;48.128;11.592;2024-02-21T23:43:40;13.30;91.90
2621;DHT22;1320;48.128;11.592;2024-02-21T23:46:07;13.30;92.00
2621;DHT22;1320;48.128;11.592;2024-02-21T23:48:37;13.30;91.90
2621;DHT22;1320;48.128;11.592;2024-02-21T23:51:07;13.40;92.00
2621;DHT22;1320;48.128;11.592;2024-02-21T23:53:33;13.40;92.00
2621;DHT22;1320;48.128;11.592;2024-02-21T23:55:58;13.40;91.90
2621;DHT22;1320;48.128;11.592;2024-02-21T23:58:25;13.50;91.70
